createdAt,value
2022-08-05T00:01:29.071Z,27.87
2022-08-05T00:03:56.984Z,27.84
2022-08-05T00:06:32.302Z,27.86
2022-08-05T00:09:00.795Z,27.88
2022-08-05T00:11:34.581Z,27.85
2022-08-05T00:14:02.402Z,27.84
2022-08-05T00:16:52.050Z,27.85
2022-08-05T00:19:23.318Z,27.82
2022-08-05T00:21:51.543Z,27.79
2022-08-05T00:24:24.197Z,27.77
2022-08-05T00:26:52.844Z,27.70
2022-08-05T00:29:22.531Z,27.69
2022-08-05T00:32:10.883Z,27.73
2022-08-05T00:34:55.860Z,27.73
2022-08-05T00:37:23.111Z,27.69
2022-08-05T00:39:57.962Z,27.70
2022-08-05T00:42:39.833Z,27.68
2022-08-05T00:45:11.629Z,27.70
2022-08-05T00:47:56.706Z,27.66
2022-08-05T00:50:25.170Z,27.64
2022-08-05T00:52:53.340Z,27.63
2022-08-05T00:55:21.707Z,27.57
2022-08-05T00:57:58.338Z,27.56
2022-08-05T01:00:27.874Z,27.52
2022-08-05T01:02:55.704Z,27.52
2022-08-05T01:05:22.746Z,27.55
2022-08-05T01:08:29.702Z,27.49
2022-08-05T01:10:54.142Z,27.51
2022-08-05T01:13:59.160Z,27.49
2022-08-05T01:16:44.263Z,27.44
2022-08-05T01:20:02.184Z,27.43
2022-08-05T01:22:47.556Z,27.37
2022-08-05T01:25:50.268Z,27.35
2022-08-05T01:28:27.757Z,27.36
2022-08-05T01:31:20.217Z,27.31
2022-08-05T01:33:55.410Z,27.28
2022-08-05T01:36:28.447Z,27.31
2022-08-05T01:39:00.182Z,27.31
2022-08-05T01:41:32.628Z,27.30
2022-08-05T01:44:01.952Z,27.31
2022-08-05T01:46:41.415Z,27.25
2022-08-05T01:49:22.932Z,27.19
2022-08-05T01:51:55.947Z,27.23
2022-08-05T01:54:27.180Z,27.27
2022-08-05T01:58:18.881Z,27.27
2022-08-05T01:59:47.276Z,27.21
2022-08-05T02:02:16.045Z,27.23
2022-08-05T02:04:46.293Z,27.24
2022-08-05T02:07:22.194Z,27.25
2022-08-05T02:09:50.994Z,27.23
2022-08-05T02:12:32.983Z,27.20
2022-08-05T02:15:12.717Z,27.18
2022-08-05T02:18:28.136Z,27.19
2022-08-05T02:20:44.174Z,27.11
2022-08-05T02:23:14.836Z,27.09
2022-08-05T02:25:49.179Z,27.10
2022-08-05T02:28:29.250Z,27.06
2022-08-05T02:31:07.590Z,27.05
2022-08-05T02:33:39.631Z,27.08
2022-08-05T02:36:13.555Z,27.06
2022-08-05T02:38:53.426Z,26.98
2022-08-05T02:41:22.875Z,26.98
2022-08-05T02:44:06.098Z,26.89
2022-08-05T02:46:53.356Z,26.88
2022-08-05T02:49:36.983Z,26.90
2022-08-05T02:52:08.633Z,26.90
2022-08-05T02:54:41.510Z,26.92
2022-08-05T02:58:09.385Z,26.92
2022-08-05T03:00:01.339Z,26.95
2022-08-05T03:02:33.008Z,26.94
2022-08-05T03:05:01.491Z,26.88
2022-08-05T03:08:01.898Z,26.88
2022-08-05T03:10:21.748Z,26.89
2022-08-05T03:12:53.654Z,26.95
2022-08-05T03:15:23.507Z,27.05
2022-08-05T03:17:53.987Z,27.02
2022-08-05T03:20:24.428Z,27.05
2022-08-05T03:22:52.757Z,27.09
2022-08-05T03:25:32.956Z,27.12
2022-08-05T03:28:08.625Z,27.17
2022-08-05T03:30:36.736Z,27.24
2022-08-05T03:33:07.521Z,27.32
2022-08-05T03:35:41.256Z,27.33
2022-08-05T03:38:14.387Z,27.35
2022-08-05T03:40:45.070Z,27.37
2022-08-05T03:44:08.996Z,27.39
2022-08-05T03:46:02.984Z,27.39
2022-08-05T03:48:30.657Z,27.36
2022-08-05T03:52:49.027Z,27.33
2022-08-05T03:55:53.091Z,27.34
2022-08-05T03:57:16.467Z,27.31
2022-08-05T03:59:54.727Z,27.31
2022-08-05T04:02:38.934Z,27.30
2022-08-05T04:05:12.993Z,27.22
2022-08-05T04:07:57.602Z,27.13
2022-08-05T04:10:31.972Z,27.06
2022-08-05T04:13:00.689Z,27.05
2022-08-05T04:15:33.282Z,27.00
2022-08-05T04:18:07.073Z,27.00
2022-08-05T04:20:34.625Z,26.98
2022-08-05T04:23:01.658Z,26.92
2022-08-05T04:25:57.714Z,26.88
2022-08-05T04:28:15.229Z,26.90
2022-08-05T04:30:44.494Z,26.77
2022-08-05T04:33:12.787Z,26.78
2022-08-05T04:36:15.648Z,26.75
2022-08-05T04:38:39.143Z,26.81
2022-08-05T04:41:06.149Z,26.92
2022-08-05T04:43:34.220Z,27.05
2022-08-05T04:46:01.110Z,27.09
2022-08-05T04:48:28.495Z,27.08
2022-08-05T04:51:03.648Z,26.95
2022-08-05T04:53:38.630Z,26.84
2022-08-05T04:56:32.275Z,26.86
2022-08-05T04:58:54.790Z,26.92
2022-08-05T05:02:06.372Z,26.95
2022-08-05T05:04:08.382Z,27.05
2022-08-05T05:06:44.556Z,27.16
2022-08-05T05:09:17.426Z,27.27
2022-08-05T05:11:54.042Z,27.35
2022-08-05T05:14:31.365Z,27.44
2022-08-05T05:17:00.247Z,27.38
2022-08-05T05:19:36.466Z,26.74
2022-08-05T05:22:22.696Z,26.19
2022-08-05T05:24:58.035Z,26.11
2022-08-05T05:27:41.517Z,25.96
2022-08-05T05:30:29.275Z,25.80
2022-08-05T05:33:00.971Z,25.74
2022-08-05T05:35:37.969Z,25.60
2022-08-05T05:38:13.778Z,25.46
2022-08-05T05:40:49.656Z,25.28
2022-08-05T05:43:27.629Z,25.27
2022-08-05T05:46:13.646Z,25.28
2022-08-05T05:48:44.165Z,25.27
2022-08-05T05:51:15.299Z,25.23
2022-08-05T05:53:54.343Z,25.19
2022-08-05T05:56:32.750Z,25.15
2022-08-05T05:59:06.654Z,25.08
2022-08-05T06:01:39.750Z,25.10
2022-08-05T06:04:12.710Z,25.08
2022-08-05T06:06:47.360Z,25.03
2022-08-05T06:09:17.291Z,24.96
2022-08-05T06:12:01.675Z,25.02
2022-08-05T06:14:33.340Z,24.99
2022-08-05T06:17:01.906Z,24.87
2022-08-05T06:19:57.093Z,24.85
2022-08-05T06:22:35.889Z,24.98
2022-08-05T06:25:24.277Z,25.03
2022-08-05T06:28:10.783Z,25.02
2022-08-05T06:30:38.801Z,25.15
2022-08-05T06:33:09.862Z,25.29
2022-08-05T06:36:07.576Z,25.38
2022-08-05T06:38:36.223Z,25.48
2022-08-05T06:41:04.968Z,25.51
2022-08-05T06:43:58.189Z,25.58
2022-08-05T06:46:18.944Z,25.69
2022-08-05T06:48:55.664Z,25.77
2022-08-05T06:51:29.494Z,25.77
2022-08-05T06:53:59.304Z,25.83
2022-08-05T06:56:27.809Z,25.95
2022-08-05T06:58:55.661Z,26.11
2022-08-05T07:01:22.875Z,26.08
2022-08-05T07:03:49.932Z,26.01
2022-08-05T07:06:20.632Z,25.94
2022-08-05T07:08:51.681Z,26.00
2022-08-05T07:11:25.347Z,26.10
2022-08-05T07:14:20.010Z,26.12
2022-08-05T07:18:00.693Z,25.99
2022-08-05T07:20:29.854Z,26.01
2022-08-05T07:22:28.614Z,26.06
2022-08-05T07:25:23.300Z,26.11
2022-08-05T07:27:57.087Z,26.25
2022-08-05T07:30:32.057Z,26.46
2022-08-05T07:33:00.939Z,26.52
2022-08-05T07:36:02.762Z,26.53
2022-08-05T07:38:33.677Z,26.66
2022-08-05T07:42:07.317Z,26.79
2022-08-05T07:43:51.235Z,26.81
2022-08-05T07:46:23.532Z,26.70
2022-08-05T07:49:01.397Z,26.69
2022-08-05T07:51:40.362Z,26.78
2022-08-05T07:54:09.624Z,26.65
2022-08-05T07:57:01.237Z,26.63
2022-08-05T07:59:39.047Z,26.54
2022-08-05T08:02:15.291Z,26.37
2022-08-05T08:04:43.143Z,26.54
2022-08-05T08:07:12.370Z,26.78
2022-08-05T08:09:39.137Z,27.09
2022-08-05T08:12:15.932Z,27.42
2022-08-05T08:14:47.192Z,27.64
2022-08-05T08:17:16.220Z,27.86
2022-08-05T08:20:22.309Z,27.89
2022-08-05T08:22:32.401Z,28.01
2022-08-05T08:25:03.374Z,28.23
2022-08-05T08:27:35.651Z,28.43
2022-08-05T08:30:30.188Z,28.62
2022-08-05T08:33:01.709Z,28.88
2022-08-05T08:35:35.036Z,29.21
2022-08-05T08:38:11.604Z,29.33
2022-08-05T08:40:48.934Z,29.51
2022-08-05T08:45:16.519Z,29.69
2022-08-05T08:46:09.898Z,29.90
2022-08-05T08:48:59.694Z,30.10
2022-08-05T08:52:03.623Z,30.32
2022-08-05T08:54:18.379Z,30.12
2022-08-05T08:56:45.144Z,29.86
2022-08-05T08:59:19.381Z,30.04
2022-08-05T09:01:57.338Z,30.28
2022-08-05T09:04:30.335Z,30.49
2022-08-05T09:06:58.446Z,30.50
2022-08-05T09:09:34.554Z,30.65
2022-08-05T09:12:14.409Z,30.82
2022-08-05T09:14:58.065Z,30.73
2022-08-05T09:17:42.618Z,30.63
2022-08-05T09:20:13.263Z,30.80
2022-08-05T09:23:19.137Z,31.01
2022-08-05T09:26:02.703Z,30.86
2022-08-05T09:28:33.427Z,31.05
2022-08-05T09:31:23.330Z,31.40
2022-08-05T09:33:59.286Z,31.54
2022-08-05T09:36:55.279Z,31.80
2022-08-05T09:39:41.550Z,32.11
2022-08-05T09:42:24.048Z,32.23
2022-08-05T09:44:57.505Z,32.24
2022-08-05T09:47:36.540Z,32.36
2022-08-05T09:50:37.586Z,32.68
2022-08-05T09:53:05.059Z,32.98
2022-08-05T09:55:56.699Z,33.04
2022-08-05T09:58:23.745Z,33.07
2022-08-05T10:01:02.216Z,33.06
2022-08-05T10:03:58.915Z,33.15
2022-08-05T10:06:28.075Z,33.36
2022-08-05T10:08:55.785Z,33.53
2022-08-05T10:11:23.004Z,33.61
2022-08-05T10:13:49.826Z,33.48
2022-08-05T10:16:41.721Z,33.66
2022-08-05T10:19:23.462Z,33.95
2022-08-05T10:21:58.657Z,34.12
2022-08-05T10:24:27.105Z,34.34
2022-08-05T10:27:00.304Z,34.53
2022-08-05T10:30:49.530Z,34.69
2022-08-05T10:32:52.645Z,34.91
2022-08-05T10:35:03.959Z,35.05
2022-08-05T10:37:41.368Z,35.03
2022-08-05T10:40:22.343Z,34.92
2022-08-05T10:43:00.433Z,35.12
2022-08-05T10:45:30.695Z,35.35
2022-08-05T10:48:30.629Z,35.21
2022-08-05T10:51:21.975Z,35.16
2022-08-05T10:53:58.574Z,35.03
2022-08-05T10:56:53.302Z,34.85
2022-08-05T11:00:04.429Z,34.87
2022-08-05T11:02:34.943Z,34.74
2022-08-05T11:05:09.472Z,34.43
2022-08-05T11:08:12.739Z,34.32
2022-08-05T11:10:50.278Z,34.32
2022-08-05T11:13:55.069Z,34.11
2022-08-05T11:16:47.491Z,33.37
2022-08-05T11:20:17.583Z,33.25
2022-08-05T11:22:49.729Z,33.46
2022-08-05T11:26:04.903Z,33.55
2022-08-05T11:28:35.873Z,33.63
2022-08-05T11:31:06.529Z,33.77
2022-08-05T11:33:48.210Z,34.06
2022-08-05T11:36:34.669Z,34.28
2022-08-05T11:39:08.799Z,34.35
2022-08-05T11:42:01.232Z,34.37
2022-08-05T11:44:52.966Z,34.51
2022-08-05T11:47:49.831Z,34.81
2022-08-05T11:50:14.447Z,35.09
2022-08-05T11:52:48.838Z,34.97
2022-08-05T11:55:17.065Z,34.49
2022-08-05T11:58:10.416Z,34.31
2022-08-05T12:00:37.984Z,33.97
2022-08-05T12:03:28.548Z,33.89
2022-08-05T12:06:03.107Z,34.01
2022-08-05T12:08:33.791Z,34.03
2022-08-05T12:11:05.705Z,34.16
2022-08-05T12:13:48.403Z,34.35
2022-08-05T12:16:20.459Z,34.60
2022-08-05T12:18:57.682Z,34.96
2022-08-05T12:21:30.068Z,35.07
2022-08-05T12:24:08.922Z,35.30
2022-08-05T12:26:44.839Z,35.42
2022-08-05T12:29:17.904Z,35.25
2022-08-05T12:31:53.953Z,35.03
2022-08-05T12:34:28.447Z,35.17
2022-08-05T12:36:58.812Z,34.93
2022-08-05T12:39:27.958Z,34.51
2022-08-05T12:42:02.429Z,34.35
2022-08-05T12:44:34.046Z,33.99
2022-08-05T12:47:02.213Z,33.81
2022-08-05T12:50:03.202Z,33.88
2022-08-05T12:52:38.502Z,33.59
2022-08-05T12:55:25.488Z,33.39
2022-08-05T12:58:51.067Z,33.23
2022-08-05T13:02:03.018Z,33.11
2022-08-05T13:03:32.610Z,33.18
2022-08-05T13:06:01.313Z,33.18
2022-08-05T13:08:32.324Z,33.17
2022-08-05T13:11:01.301Z,32.97
2022-08-05T13:14:06.053Z,32.86
2022-08-05T13:16:17.402Z,32.74
2022-08-05T13:18:58.865Z,32.76
2022-08-05T13:21:37.870Z,32.65
2022-08-05T13:24:27.760Z,32.65
2022-08-05T13:27:04.137Z,32.71
2022-08-05T13:29:37.547Z,32.83
2022-08-05T13:32:05.555Z,33.01
2022-08-05T13:34:32.979Z,33.06
2022-08-05T13:37:00.494Z,33.03
2022-08-05T13:40:16.783Z,33.11
2022-08-05T13:42:15.270Z,33.23
2022-08-05T13:44:46.309Z,33.33
2022-08-05T13:47:36.006Z,33.38
2022-08-05T13:50:09.548Z,33.41
2022-08-05T13:52:41.251Z,33.41
2022-08-05T13:55:09.891Z,33.44
2022-08-05T13:57:50.545Z,33.44
2022-08-05T14:00:19.744Z,33.37
2022-08-05T14:02:54.242Z,33.35
2022-08-05T14:05:29.699Z,33.31
2022-08-05T14:08:10.934Z,33.32
2022-08-05T14:10:47.702Z,33.22
2022-08-05T14:13:15.278Z,33.16
2022-08-05T14:16:05.574Z,33.02
2022-08-05T14:18:29.322Z,32.71
2022-08-05T14:20:56.040Z,32.47
2022-08-05T14:23:25.440Z,32.32
2022-08-05T14:25:58.822Z,32.20
2022-08-05T14:28:29.368Z,32.31
2022-08-05T14:31:00.790Z,32.46
2022-08-05T14:33:57.067Z,32.51
2022-08-05T14:36:21.317Z,32.48
2022-08-05T14:38:50.058Z,32.50
2022-08-05T14:41:18.536Z,32.46
2022-08-05T14:43:58.953Z,32.40
2022-08-05T14:46:30.602Z,32.37
2022-08-05T14:48:59.697Z,32.39
2022-08-05T14:54:27.665Z,32.55
2022-08-05T14:56:56.503Z,32.67
2022-08-05T14:59:23.548Z,32.68
2022-08-05T15:01:50.514Z,32.59
2022-08-05T15:04:20.546Z,32.40
2022-08-05T15:06:51.801Z,32.30
2022-08-05T15:09:51.495Z,32.27
2022-08-05T15:12:07.085Z,32.23
2022-08-05T15:14:48.247Z,32.10
2022-08-05T15:17:47.674Z,32.03
2022-08-05T15:20:05.041Z,32.09
2022-08-05T15:22:31.751Z,32.14
2022-08-05T15:24:59.331Z,32.09
2022-08-05T15:27:26.398Z,32.04
2022-08-05T15:29:59.289Z,31.98
2022-08-05T15:32:26.690Z,31.98
2022-08-05T15:34:55.376Z,31.89
2022-08-05T15:38:31.935Z,31.82
2022-08-05T15:40:59.836Z,31.76
2022-08-05T15:43:07.950Z,31.69
2022-08-05T15:45:39.009Z,31.57
2022-08-05T15:48:06.852Z,31.36
2022-08-05T15:50:33.931Z,31.21
2022-08-05T15:53:06.354Z,31.05
2022-08-05T15:56:03.920Z,30.91
2022-08-05T15:58:23.239Z,30.88
2022-08-05T16:01:04.319Z,30.92
2022-08-05T16:03:40.975Z,30.94
2022-08-05T16:06:09.326Z,30.99
2022-08-05T16:08:38.375Z,31.05
2022-08-05T16:11:05.284Z,31.03
2022-08-05T16:13:34.726Z,30.92
2022-08-05T16:16:04.765Z,30.84
2022-08-05T16:18:33.019Z,30.73
2022-08-05T16:21:04.327Z,30.67
2022-08-05T16:23:33.102Z,30.58
2022-08-05T16:26:19.165Z,30.44
2022-08-05T16:28:53.034Z,30.38
2022-08-05T16:31:21.333Z,30.38
2022-08-05T16:33:48.409Z,30.42
2022-08-05T16:36:20.160Z,30.42
2022-08-05T16:38:54.757Z,30.35
2022-08-05T16:42:14.655Z,30.43
2022-08-05T16:44:13.830Z,30.44
2022-08-05T16:46:56.109Z,30.36
2022-08-05T16:49:23.614Z,30.28
2022-08-05T16:51:54.777Z,30.22
2022-08-05T16:54:27.529Z,30.19
2022-08-05T16:56:58.937Z,30.21
2022-08-05T16:59:27.683Z,30.06
2022-08-05T17:01:55.694Z,29.92
2022-08-05T17:04:28.184Z,29.77
2022-08-05T17:07:01.863Z,29.73
2022-08-05T17:09:38.957Z,29.68
2022-08-05T17:12:17.885Z,29.60
2022-08-05T17:14:49.697Z,29.27
2022-08-05T17:17:16.537Z,28.86
2022-08-05T17:19:46.437Z,28.47
2022-08-05T17:22:24.409Z,28.23
2022-08-05T17:24:57.807Z,27.86
2022-08-05T17:27:27.226Z,27.58
2022-08-05T17:30:02.674Z,27.44
2022-08-05T17:32:30.180Z,27.22
2022-08-05T17:35:00.569Z,26.96
2022-08-05T17:37:41.232Z,26.75
2022-08-05T17:40:14.952Z,26.49
2022-08-05T17:42:49.707Z,26.29
2022-08-05T17:45:29.488Z,26.17
2022-08-05T17:47:56.489Z,25.99
2022-08-05T17:50:28.149Z,25.88
2022-08-05T17:53:01.533Z,25.87
2022-08-05T17:55:38.332Z,25.70
2022-08-05T17:58:09.586Z,25.69
2022-08-05T18:00:44.251Z,25.58
2022-08-05T18:03:12.141Z,25.44
2022-08-05T18:05:55.298Z,25.07
2022-08-05T18:08:28.359Z,24.90
2022-08-05T18:10:55.036Z,24.76
2022-08-05T18:13:21.790Z,24.64
2022-08-05T18:15:52.499Z,24.43
2022-08-05T18:18:21.311Z,24.29
2022-08-05T18:20:53.211Z,24.20
2022-08-05T18:23:21.909Z,23.98
2022-08-05T18:25:57.378Z,23.91
2022-08-05T18:28:28.454Z,23.85
2022-08-05T18:30:55.234Z,23.84
2022-08-05T18:33:23.094Z,23.98
2022-08-05T18:36:03.363Z,24.10
2022-08-05T18:38:35.973Z,24.05
2022-08-05T18:41:55.277Z,24.10
2022-08-05T18:43:50.632Z,24.15
2022-08-05T18:46:19.842Z,24.11
2022-08-05T18:48:52.494Z,24.02
2022-08-05T18:52:06.598Z,23.89
2022-08-05T18:54:27.559Z,23.76
2022-08-05T18:56:57.583Z,23.63
2022-08-05T18:59:43.058Z,23.53
2022-08-05T19:02:28.323Z,23.51
2022-08-05T19:05:02.193Z,23.35
2022-08-05T19:07:46.597Z,23.33
2022-08-05T19:10:19.073Z,23.39
2022-08-05T19:12:54.508Z,23.51
2022-08-05T19:15:57.788Z,23.52
2022-08-05T19:18:10.442Z,23.60
2022-08-05T19:20:41.592Z,23.71
2022-08-05T19:24:04.235Z,23.69
2022-08-05T19:26:01.848Z,23.61
2022-08-05T19:28:30.914Z,23.61
2022-08-05T19:30:57.909Z,23.64
2022-08-05T19:33:35.437Z,23.72
2022-08-05T19:36:06.597Z,23.91
2022-08-05T19:38:35.951Z,23.94
2022-08-05T19:41:07.317Z,23.85
2022-08-05T19:44:06.491Z,23.87
2022-08-05T19:46:29.406Z,24.04
2022-08-05T19:49:03.572Z,24.12
2022-08-05T19:52:09.061Z,24.07
2022-08-05T19:54:29.476Z,24.06
2022-08-05T19:56:59.884Z,24.03
2022-08-05T19:59:56.037Z,23.96
2022-08-05T20:02:17.563Z,24.01
2022-08-05T20:04:46.240Z,23.79
2022-08-05T20:07:15.466Z,23.72
2022-08-05T20:09:54.421Z,23.67
2022-08-05T20:12:24.413Z,23.56
2022-08-05T20:14:52.939Z,23.52
2022-08-05T20:17:23.257Z,23.38
2022-08-05T20:19:51.097Z,23.18
2022-08-05T20:22:25.077Z,23.12
2022-08-05T20:24:55.292Z,23.23
2022-08-05T20:27:26.926Z,23.31
2022-08-05T20:29:57.655Z,23.26
2022-08-05T20:32:25.435Z,23.13
2022-08-05T20:34:52.232Z,23.16
2022-08-05T20:38:04.658Z,23.17
2022-08-05T20:40:07.064Z,23.21
2022-08-05T20:42:34.763Z,23.03
2022-08-05T20:45:03.044Z,22.98
2022-08-05T20:47:32.017Z,23.01
2022-08-05T20:49:59.769Z,22.99
2022-08-05T20:52:29.514Z,23.01
2022-08-05T20:55:54.197Z,23.10
2022-08-05T20:57:44.831Z,23.00
2022-08-05T21:00:35.073Z,22.82
2022-08-05T21:03:04.857Z,22.66
2022-08-05T21:05:48.214Z,22.60
2022-08-05T21:08:47.362Z,22.44
2022-08-05T21:12:08.866Z,22.56
2022-08-05T21:14:02.673Z,22.63
2022-08-05T21:16:30.774Z,22.62
2022-08-05T21:19:01.888Z,22.57
2022-08-05T21:21:39.206Z,22.40
2022-08-05T21:24:12.998Z,22.37
2022-08-05T21:26:41.224Z,22.35
2022-08-05T21:29:10.083Z,22.21
2022-08-05T21:31:41.283Z,21.95
2022-08-05T21:34:10.422Z,21.61
2022-08-05T21:36:38.746Z,21.64
2022-08-05T21:39:05.670Z,21.87
2022-08-05T21:41:36.318Z,21.92
2022-08-05T21:44:05.053Z,21.75
2022-08-05T21:46:34.329Z,21.85
2022-08-05T21:49:04.572Z,21.92
2022-08-05T21:52:22.886Z,21.89
2022-08-05T21:54:27.797Z,21.97
2022-08-05T21:57:15.444Z,22.07
2022-08-05T22:00:02.137Z,22.06
2022-08-05T22:02:41.732Z,22.27
2022-08-05T22:05:11.775Z,22.33
2022-08-05T22:08:01.981Z,22.00
2022-08-05T22:10:27.564Z,21.92
2022-08-05T22:12:57.274Z,22.03
2022-08-05T22:16:04.680Z,21.97
2022-08-05T22:18:12.323Z,21.84
2022-08-05T22:20:41.357Z,21.80
2022-08-05T22:24:02.056Z,21.60
2022-08-05T22:26:33.730Z,21.35
2022-08-05T22:29:00.474Z,21.21
2022-08-05T22:31:29.907Z,21.06
2022-08-05T22:34:01.245Z,21.10
2022-08-05T22:36:29.237Z,21.16
2022-08-05T22:38:56.446Z,21.06
2022-08-05T22:42:04.266Z,21.11
2022-08-05T22:44:11.820Z,21.03
2022-08-05T22:46:40.659Z,20.99
2022-08-05T22:49:46.162Z,20.96
2022-08-05T22:52:04.288Z,20.72
2022-08-05T22:54:33.643Z,20.53
2022-08-05T22:57:00.405Z,20.36
2022-08-05T22:59:45.218Z,20.47
2022-08-05T23:02:28.750Z,20.53
2022-08-05T23:04:55.855Z,20.46
2022-08-05T23:07:22.588Z,20.47
2022-08-05T23:09:57.728Z,20.55
2022-08-05T23:12:32.732Z,20.53
2022-08-05T23:15:03.421Z,20.64
2022-08-05T23:17:34.450Z,20.75
2022-08-05T23:20:10.425Z,20.89
2022-08-05T23:22:43.885Z,20.67
2022-08-05T23:25:17.564Z,20.58
2022-08-05T23:28:02.443Z,20.71
2022-08-05T23:30:31.302Z,20.81
2022-08-05T23:32:58.866Z,20.76
2022-08-05T23:35:28.429Z,20.95
2022-08-05T23:38:01.086Z,21.16
2022-08-05T23:40:27.777Z,21.13
2022-08-05T23:42:54.666Z,20.13
2022-08-05T23:45:23.770Z,18.99
2022-08-05T23:47:53.871Z,18.73
2022-08-05T23:50:26.529Z,18.54
2022-08-05T23:52:55.386Z,18.64
2022-08-05T23:55:22.516Z,19.03
2022-08-05T23:57:57.853Z,19.25
